sensor_id;sensor_type;location;lat;lon;timestamp;P1;durP1;ratioP1;P2;durP2;ratioP2
19869;SDS011;10097;50.862;4.696;2022-10-31T00:00:49;20.93;;;9.67;;
19869;SDS011;10097;50.862;4.696;2022-10-31T00:03:15;19.37;;;9.43;;
19869;SDS011;10097;50.862;4.696;2022-10-31T00:05:43;21.30;;;9.97;;
19869;SDS011;10097;50.862;4.696;2022-10-31T00:08:10;17.87;;;9.30;;
19869;SDS011;10097;50.862;4.696;2022-10-31T00:10:39;21.63;;;10.20;;
19869;SDS011;10097;50.862;4.696;2022-10-31T00:13:05;21.43;;;9.60;;
19869;SDS011;10097;50.862;4.696;2022-10-31T00:15:35;21.67;;;10.57;;
19869;SDS011;10097;50.862;4.696;2022-10-31T00:18:05;22.50;;;9.37;;
19869;SDS011;10097;50.862;4.696;2022-10-31T00:20:32;19.67;;;10.23;;
19869;SDS011;10097;50.862;4.696;2022-10-31T00:22:59;21.13;;;9.77;;
19869;SDS011;10097;50.862;4.696;2022-10-31T00:25:26;19.57;;;9.97;;
19869;SDS011;10097;50.862;4.696;2022-10-31T00:27:53;22.40;;;10.13;;
19869;SDS011;10097;50.862;4.696;2022-10-31T00:30:18;18.70;;;9.40;;
19869;SDS011;10097;50.862;4.696;2022-10-31T00:32:44;21.53;;;9.27;;
19869;SDS011;10097;50.862;4.696;2022-10-31T00:35:10;21.43;;;10.27;;
19869;SDS011;10097;50.862;4.696;2022-10-31T00:37:35;24.50;;;9.70;;
19869;SDS011;10097;50.862;4.696;2022-10-31T00:40:01;19.37;;;11.07;;
19869;SDS011;10097;50.862;4.696;2022-10-31T00:42:27;21.60;;;10.00;;
19869;SDS011;10097;50.862;4.696;2022-10-31T00:44:52;20.17;;;10.13;;
19869;SDS011;10097;50.862;4.696;2022-10-31T00:47:18;18.60;;;9.37;;
19869;SDS011;10097;50.862;4.696;2022-10-31T00:49:43;16.90;;;9.30;;
19869;SDS011;10097;50.862;4.696;2022-10-31T00:52:09;18.47;;;9.73;;
19869;SDS011;10097;50.862;4.696;2022-10-31T00:54:35;19.77;;;9.37;;
19869;SDS011;10097;50.862;4.696;2022-10-31T00:57:00;20.37;;;9.47;;
19869;SDS011;10097;50.862;4.696;2022-10-31T00:59:26;18.97;;;9.30;;
19869;SDS011;10097;50.862;4.696;2022-10-31T01:01:51;18.27;;;8.60;;
19869;SDS011;10097;50.862;4.696;2022-10-31T01:04:17;19.70;;;9.00;;
19869;SDS011;10097;50.862;4.696;2022-10-31T01:06:43;20.63;;;9.47;;
19869;SDS011;10097;50.862;4.696;2022-10-31T01:09:08;19.80;;;9.60;;
19869;SDS011;10097;50.862;4.696;2022-10-31T01:11:34;17.47;;;9.50;;
19869;SDS011;10097;50.862;4.696;2022-10-31T01:14:00;23.07;;;9.80;;
19869;SDS011;10097;50.862;4.696;2022-10-31T01:16:26;18.37;;;8.80;;
19869;SDS011;10097;50.862;4.696;2022-10-31T01:18:54;22.13;;;10.30;;
19869;SDS011;10097;50.862;4.696;2022-10-31T01:21:24;19.13;;;10.20;;
19869;SDS011;10097;50.862;4.696;2022-10-31T01:23:52;30.23;;;11.13;;
19869;SDS011;10097;50.862;4.696;2022-10-31T01:26:23;25.43;;;12.03;;
19869;SDS011;10097;50.862;4.696;2022-10-31T01:28:56;21.40;;;11.00;;
19869;SDS011;10097;50.862;4.696;2022-10-31T01:31:25;22.13;;;10.70;;
19869;SDS011;10097;50.862;4.696;2022-10-31T01:33:53;22.77;;;10.83;;
19869;SDS011;10097;50.862;4.696;2022-10-31T01:36:21;18.40;;;10.80;;
19869;SDS011;10097;50.862;4.696;2022-10-31T01:38:49;22.57;;;10.43;;
19869;SDS011;10097;50.862;4.696;2022-10-31T01:41:20;22.33;;;10.43;;
19869;SDS011;10097;50.862;4.696;2022-10-31T01:46:17;23.30;;;12.13;;
19869;SDS011;10097;50.862;4.696;2022-10-31T01:48:53;26.23;;;13.17;;
19869;SDS011;10097;50.862;4.696;2022-10-31T01:51:21;25.40;;;13.43;;
19869;SDS011;10097;50.862;4.696;2022-10-31T01:53:50;22.37;;;12.07;;
19869;SDS011;10097;50.862;4.696;2022-10-31T01:56:20;20.87;;;10.70;;
19869;SDS011;10097;50.862;4.696;2022-10-31T01:58:46;23.53;;;10.93;;
19869;SDS011;10097;50.862;4.696;2022-10-31T02:01:12;19.63;;;10.10;;
19869;SDS011;10097;50.862;4.696;2022-10-31T02:03:40;22.53;;;11.10;;
19869;SDS011;10097;50.862;4.696;2022-10-31T02:06:08;21.13;;;11.50;;
19869;SDS011;10097;50.862;4.696;2022-10-31T02:08:38;23.03;;;11.50;;
19869;SDS011;10097;50.862;4.696;2022-10-31T02:11:05;21.53;;;11.63;;
19869;SDS011;10097;50.862;4.696;2022-10-31T02:13:32;25.57;;;11.27;;
19869;SDS011;10097;50.862;4.696;2022-10-31T02:15:59;18.57;;;9.50;;
19869;SDS011;10097;50.862;4.696;2022-10-31T02:18:27;21.47;;;10.30;;
19869;SDS011;10097;50.862;4.696;2022-10-31T02:31:46;22.43;;;10.93;;
19869;SDS011;10097;50.862;4.696;2022-10-31T02:40:11;24.73;;;10.87;;
19869;SDS011;10097;50.862;4.696;2022-10-31T02:42:47;20.50;;;10.10;;
19869;SDS011;10097;50.862;4.696;2022-10-31T02:45:45;20.27;;;10.67;;
19869;SDS011;10097;50.862;4.696;2022-10-31T02:48:18;17.30;;;9.27;;
19869;SDS011;10097;50.862;4.696;2022-10-31T02:50:50;16.00;;;9.63;;
19869;SDS011;10097;50.862;4.696;2022-10-31T02:53:20;21.73;;;10.07;;
19869;SDS011;10097;50.862;4.696;2022-10-31T02:55:50;18.20;;;9.73;;
19869;SDS011;10097;50.862;4.696;2022-10-31T02:58:33;18.53;;;9.97;;
19869;SDS011;10097;50.862;4.696;2022-10-31T03:01:10;22.30;;;10.27;;
19869;SDS011;10097;50.862;4.696;2022-10-31T03:07:03;24.43;;;9.77;;
19869;SDS011;10097;50.862;4.696;2022-10-31T03:10:03;17.40;;;9.37;;
19869;SDS011;10097;50.862;4.696;2022-10-31T03:15:21;16.83;;;8.83;;
19869;SDS011;10097;50.862;4.696;2022-10-31T03:20:51;15.17;;;8.33;;
19869;SDS011;10097;50.862;4.696;2022-10-31T03:23:22;17.67;;;8.47;;
19869;SDS011;10097;50.862;4.696;2022-10-31T03:25:50;18.37;;;8.97;;
19869;SDS011;10097;50.862;4.696;2022-10-31T03:28:19;15.07;;;8.30;;
19869;SDS011;10097;50.862;4.696;2022-10-31T03:30:51;15.80;;;8.20;;
19869;SDS011;10097;50.862;4.696;2022-10-31T03:33:20;14.83;;;8.20;;
19869;SDS011;10097;50.862;4.696;2022-10-31T03:35:50;14.97;;;7.50;;
19869;SDS011;10097;50.862;4.696;2022-10-31T03:38:17;16.77;;;8.23;;
19869;SDS011;10097;50.862;4.696;2022-10-31T03:40:44;15.60;;;7.83;;
19869;SDS011;10097;50.862;4.696;2022-10-31T03:43:13;17.60;;;7.87;;
19869;SDS011;10097;50.862;4.696;2022-10-31T03:45:45;16.33;;;7.20;;
19869;SDS011;10097;50.862;4.696;2022-10-31T03:48:16;14.63;;;7.17;;
19869;SDS011;10097;50.862;4.696;2022-10-31T03:53:33;14.83;;;8.00;;
19869;SDS011;10097;50.862;4.696;2022-10-31T03:56:11;13.60;;;6.70;;
19869;SDS011;10097;50.862;4.696;2022-10-31T03:58:48;15.70;;;6.80;;
19869;SDS011;10097;50.862;4.696;2022-10-31T04:01:23;17.00;;;7.13;;
19869;SDS011;10097;50.862;4.696;2022-10-31T04:03:51;18.73;;;6.73;;
19869;SDS011;10097;50.862;4.696;2022-10-31T04:06:18;17.47;;;6.93;;
19869;SDS011;10097;50.862;4.696;2022-10-31T04:08:48;13.20;;;6.67;;
19869;SDS011;10097;50.862;4.696;2022-10-31T04:11:18;14.50;;;7.43;;
19869;SDS011;10097;50.862;4.696;2022-10-31T04:13:47;12.97;;;6.27;;
19869;SDS011;10097;50.862;4.696;2022-10-31T04:16:14;13.87;;;6.63;;
19869;SDS011;10097;50.862;4.696;2022-10-31T04:18:41;13.20;;;7.30;;
19869;SDS011;10097;50.862;4.696;2022-10-31T04:21:07;17.60;;;6.97;;
19869;SDS011;10097;50.862;4.696;2022-10-31T04:23:34;15.83;;;7.23;;
19869;SDS011;10097;50.862;4.696;2022-10-31T04:26:00;17.60;;;8.00;;
19869;SDS011;10097;50.862;4.696;2022-10-31T04:28:26;16.00;;;6.67;;
19869;SDS011;10097;50.862;4.696;2022-10-31T04:30:52;14.83;;;6.13;;
19869;SDS011;10097;50.862;4.696;2022-10-31T04:33:18;18.00;;;6.53;;
19869;SDS011;10097;50.862;4.696;2022-10-31T04:35:44;16.87;;;6.43;;
19869;SDS011;10097;50.862;4.696;2022-10-31T04:38:10;15.10;;;7.07;;
19869;SDS011;10097;50.862;4.696;2022-10-31T04:40:35;15.63;;;7.40;;
19869;SDS011;10097;50.862;4.696;2022-10-31T04:43:01;14.43;;;6.47;;
19869;SDS011;10097;50.862;4.696;2022-10-31T04:45:26;14.60;;;7.00;;
19869;SDS011;10097;50.862;4.696;2022-10-31T04:47:52;16.40;;;6.70;;
19869;SDS011;10097;50.862;4.696;2022-10-31T04:50:18;15.93;;;6.63;;
19869;SDS011;10097;50.862;4.696;2022-10-31T04:52:44;12.03;;;6.07;;
19869;SDS011;10097;50.862;4.696;2022-10-31T04:55:11;14.07;;;6.73;;
19869;SDS011;10097;50.862;4.696;2022-10-31T04:57:44;15.73;;;6.80;;
19869;SDS011;10097;50.862;4.696;2022-10-31T05:00:14;16.33;;;6.63;;
19869;SDS011;10097;50.862;4.696;2022-10-31T05:02:45;12.10;;;6.10;;
19869;SDS011;10097;50.862;4.696;2022-10-31T05:05:16;17.63;;;6.67;;
19869;SDS011;10097;50.862;4.696;2022-10-31T05:07:43;15.50;;;7.17;;
19869;SDS011;10097;50.862;4.696;2022-10-31T05:10:11;17.97;;;8.40;;
19869;SDS011;10097;50.862;4.696;2022-10-31T05:12:47;17.53;;;8.07;;
19869;SDS011;10097;50.862;4.696;2022-10-31T05:15:15;17.00;;;7.87;;
19869;SDS011;10097;50.862;4.696;2022-10-31T05:17:41;17.53;;;8.50;;
19869;SDS011;10097;50.862;4.696;2022-10-31T05:20:08;14.90;;;7.57;;
19869;SDS011;10097;50.862;4.696;2022-10-31T05:22:34;17.70;;;7.30;;
19869;SDS011;10097;50.862;4.696;2022-10-31T05:25:00;19.07;;;7.60;;
19869;SDS011;10097;50.862;4.696;2022-10-31T05:27:25;16.77;;;8.13;;
19869;SDS011;10097;50.862;4.696;2022-10-31T05:29:51;17.57;;;7.33;;
19869;SDS011;10097;50.862;4.696;2022-10-31T05:32:16;14.77;;;6.83;;
19869;SDS011;10097;50.862;4.696;2022-10-31T05:34:42;16.23;;;7.33;;
19869;SDS011;10097;50.862;4.696;2022-10-31T05:37:08;14.37;;;7.17;;
19869;SDS011;10097;50.862;4.696;2022-10-31T05:39:33;16.40;;;6.67;;
19869;SDS011;10097;50.862;4.696;2022-10-31T05:41:59;14.40;;;7.60;;
19869;SDS011;10097;50.862;4.696;2022-10-31T05:44:24;14.57;;;6.90;;
19869;SDS011;10097;50.862;4.696;2022-10-31T05:46:50;14.00;;;7.20;;
19869;SDS011;10097;50.862;4.696;2022-10-31T05:49:16;16.23;;;7.83;;
19869;SDS011;10097;50.862;4.696;2022-10-31T05:51:42;14.87;;;7.50;;
19869;SDS011;10097;50.862;4.696;2022-10-31T05:54:08;17.23;;;7.67;;
19869;SDS011;10097;50.862;4.696;2022-10-31T05:56:33;13.33;;;6.47;;
19869;SDS011;10097;50.862;4.696;2022-10-31T05:58:59;14.97;;;7.30;;
19869;SDS011;10097;50.862;4.696;2022-10-31T06:01:25;16.50;;;6.53;;
19869;SDS011;10097;50.862;4.696;2022-10-31T06:03:50;13.87;;;6.50;;
19869;SDS011;10097;50.862;4.696;2022-10-31T06:06:16;15.40;;;7.27;;
19869;SDS011;10097;50.862;4.696;2022-10-31T06:08:41;14.20;;;7.00;;
19869;SDS011;10097;50.862;4.696;2022-10-31T06:11:07;16.37;;;7.63;;
19869;SDS011;10097;50.862;4.696;2022-10-31T06:13:32;14.83;;;7.23;;
19869;SDS011;10097;50.862;4.696;2022-10-31T06:15:58;15.47;;;6.77;;
19869;SDS011;10097;50.862;4.696;2022-10-31T06:18:24;15.50;;;7.27;;
19869;SDS011;10097;50.862;4.696;2022-10-31T06:20:49;16.13;;;6.53;;
19869;SDS011;10097;50.862;4.696;2022-10-31T06:23:15;16.33;;;7.07;;
19869;SDS011;10097;50.862;4.696;2022-10-31T06:25:41;14.43;;;6.70;;
19869;SDS011;10097;50.862;4.696;2022-10-31T06:28:06;14.20;;;6.83;;
19869;SDS011;10097;50.862;4.696;2022-10-31T06:30:32;17.37;;;7.30;;
19869;SDS011;10097;50.862;4.696;2022-10-31T06:33:01;17.23;;;7.00;;
19869;SDS011;10097;50.862;4.696;2022-10-31T06:35:28;16.23;;;6.80;;
19869;SDS011;10097;50.862;4.696;2022-10-31T06:37:54;14.23;;;7.63;;
19869;SDS011;10097;50.862;4.696;2022-10-31T06:40:20;16.13;;;8.20;;
19869;SDS011;10097;50.862;4.696;2022-10-31T06:42:46;15.30;;;7.00;;
19869;SDS011;10097;50.862;4.696;2022-10-31T06:45:12;18.20;;;6.93;;
19869;SDS011;10097;50.862;4.696;2022-10-31T06:47:38;17.53;;;7.60;;
19869;SDS011;10097;50.862;4.696;2022-10-31T06:50:04;15.20;;;9.03;;
19869;SDS011;10097;50.862;4.696;2022-10-31T06:52:30;16.50;;;7.43;;
19869;SDS011;10097;50.862;4.696;2022-10-31T06:54:56;14.67;;;7.23;;
19869;SDS011;10097;50.862;4.696;2022-10-31T06:57:22;15.17;;;7.03;;
19869;SDS011;10097;50.862;4.696;2022-10-31T06:59:47;19.03;;;7.87;;
19869;SDS011;10097;50.862;4.696;2022-10-31T07:02:13;17.40;;;8.20;;
19869;SDS011;10097;50.862;4.696;2022-10-31T07:04:38;15.07;;;7.40;;
19869;SDS011;10097;50.862;4.696;2022-10-31T07:07:04;17.13;;;8.23;;
19869;SDS011;10097;50.862;4.696;2022-10-31T07:09:30;16.17;;;8.23;;
19869;SDS011;10097;50.862;4.696;2022-10-31T07:11:55;23.43;;;9.10;;
19869;SDS011;10097;50.862;4.696;2022-10-31T07:14:21;15.90;;;8.40;;
19869;SDS011;10097;50.862;4.696;2022-10-31T07:16:50;22.17;;;8.43;;
19869;SDS011;10097;50.862;4.696;2022-10-31T07:19:16;21.57;;;8.33;;
19869;SDS011;10097;50.862;4.696;2022-10-31T07:21:42;24.43;;;9.23;;
19869;SDS011;10097;50.862;4.696;2022-10-31T07:24:07;22.23;;;9.43;;
19869;SDS011;10097;50.862;4.696;2022-10-31T07:26:33;16.90;;;9.40;;
19869;SDS011;10097;50.862;4.696;2022-10-31T07:29:00;19.70;;;9.50;;
19869;SDS011;10097;50.862;4.696;2022-10-31T07:31:25;17.90;;;9.37;;
19869;SDS011;10097;50.862;4.696;2022-10-31T07:33:51;23.03;;;10.57;;
19869;SDS011;10097;50.862;4.696;2022-10-31T07:36:16;28.00;;;13.23;;
19869;SDS011;10097;50.862;4.696;2022-10-31T07:38:42;25.50;;;13.50;;
19869;SDS011;10097;50.862;4.696;2022-10-31T07:41:08;26.13;;;13.20;;
19869;SDS011;10097;50.862;4.696;2022-10-31T07:43:34;28.37;;;14.53;;
19869;SDS011;10097;50.862;4.696;2022-10-31T07:46:00;27.87;;;12.77;;
19869;SDS011;10097;50.862;4.696;2022-10-31T07:48:25;26.53;;;14.43;;
19869;SDS011;10097;50.862;4.696;2022-10-31T07:50:51;25.97;;;13.57;;
19869;SDS011;10097;50.862;4.696;2022-10-31T07:53:17;29.20;;;13.87;;
19869;SDS011;10097;50.862;4.696;2022-10-31T07:55:42;44.10;;;14.97;;
19869;SDS011;10097;50.862;4.696;2022-10-31T07:58:09;44.47;;;13.93;;
19869;SDS011;10097;50.862;4.696;2022-10-31T08:00:40;32.90;;;13.83;;
19869;SDS011;10097;50.862;4.696;2022-10-31T08:03:08;38.30;;;14.37;;
19869;SDS011;10097;50.862;4.696;2022-10-31T08:05:35;25.90;;;13.20;;
19869;SDS011;10097;50.862;4.696;2022-10-31T08:08:02;27.17;;;13.77;;
19869;SDS011;10097;50.862;4.696;2022-10-31T08:10:29;28.20;;;13.93;;
19869;SDS011;10097;50.862;4.696;2022-10-31T08:13:05;28.93;;;14.33;;
19869;SDS011;10097;50.862;4.696;2022-10-31T08:15:35;23.33;;;13.47;;
19869;SDS011;10097;50.862;4.696;2022-10-31T08:18:04;27.27;;;13.23;;
19869;SDS011;10097;50.862;4.696;2022-10-31T08:20:31;25.10;;;13.53;;
19869;SDS011;10097;50.862;4.696;2022-10-31T08:22:57;28.47;;;13.70;;
19869;SDS011;10097;50.862;4.696;2022-10-31T08:25:24;25.63;;;13.07;;
19869;SDS011;10097;50.862;4.696;2022-10-31T08:27:54;24.30;;;13.90;;
19869;SDS011;10097;50.862;4.696;2022-10-31T08:33:43;26.43;;;12.57;;
19869;SDS011;10097;50.862;4.696;2022-10-31T08:36:08;23.33;;;12.93;;
19869;SDS011;10097;50.862;4.696;2022-10-31T08:38:34;25.30;;;13.23;;
19869;SDS011;10097;50.862;4.696;2022-10-31T08:41:01;24.20;;;12.73;;
19869;SDS011;10097;50.862;4.696;2022-10-31T08:43:26;21.10;;;11.93;;
19869;SDS011;10097;50.862;4.696;2022-10-31T08:45:52;23.67;;;12.67;;
19869;SDS011;10097;50.862;4.696;2022-10-31T08:48:20;25.23;;;13.37;;
19869;SDS011;10097;50.862;4.696;2022-10-31T08:50:46;22.87;;;11.97;;
19869;SDS011;10097;50.862;4.696;2022-10-31T08:53:13;21.33;;;12.03;;
19869;SDS011;10097;50.862;4.696;2022-10-31T08:55:44;23.47;;;11.83;;
19869;SDS011;10097;50.862;4.696;2022-10-31T08:58:11;25.05;;;12.27;;
19869;SDS011;10097;50.862;4.696;2022-10-31T09:00:38;25.80;;;11.93;;
19869;SDS011;10097;50.862;4.696;2022-10-31T09:03:06;21.87;;;12.13;;
19869;SDS011;10097;50.862;4.696;2022-10-31T09:05:36;23.67;;;12.30;;
19869;SDS011;10097;50.862;4.696;2022-10-31T09:08:02;20.23;;;12.10;;
19869;SDS011;10097;50.862;4.696;2022-10-31T09:10:30;23.50;;;12.17;;
19869;SDS011;10097;50.862;4.696;2022-10-31T09:12:58;25.13;;;13.13;;
19869;SDS011;10097;50.862;4.696;2022-10-31T09:15:25;23.10;;;12.53;;
19869;SDS011;10097;50.862;4.696;2022-10-31T09:17:51;26.60;;;12.73;;
19869;SDS011;10097;50.862;4.696;2022-10-31T09:20:17;22.73;;;12.55;;
19869;SDS011;10097;50.862;4.696;2022-10-31T09:22:43;25.10;;;11.35;;
19869;SDS011;10097;50.862;4.696;2022-10-31T09:25:09;25.70;;;11.98;;
19869;SDS011;10097;50.862;4.696;2022-10-31T09:27:35;20.40;;;11.40;;
19869;SDS011;10097;50.862;4.696;2022-10-31T09:30:01;20.83;;;11.93;;
19869;SDS011;10097;50.862;4.696;2022-10-31T09:32:26;29.60;;;11.63;;
19869;SDS011;10097;50.862;4.696;2022-10-31T09:34:52;23.23;;;10.88;;
19869;SDS011;10097;50.862;4.696;2022-10-31T09:37:17;25.63;;;11.55;;
19869;SDS011;10097;50.862;4.696;2022-10-31T09:39:43;23.40;;;12.18;;
19869;SDS011;10097;50.862;4.696;2022-10-31T09:42:15;19.73;;;11.32;;
19869;SDS011;10097;50.862;4.696;2022-10-31T09:53:10;21.48;;;11.10;;
19869;SDS011;10097;50.862;4.696;2022-10-31T09:55:58;28.05;;;11.60;;
19869;SDS011;10097;50.862;4.696;2022-10-31T09:58:25;27.95;;;14.00;;
19869;SDS011;10097;50.862;4.696;2022-10-31T10:00:54;23.15;;;11.65;;
19869;SDS011;10097;50.862;4.696;2022-10-31T10:03:35;22.65;;;11.25;;
19869;SDS011;10097;50.862;4.696;2022-10-31T10:06:13;19.88;;;10.60;;
19869;SDS011;10097;50.862;4.696;2022-10-31T10:08:42;22.05;;;10.20;;
19869;SDS011;10097;50.862;4.696;2022-10-31T10:22:12;21.67;;;11.05;;
19869;SDS011;10097;50.862;4.696;2022-10-31T10:25:30;25.90;;;10.68;;
19869;SDS011;10097;50.862;4.696;2022-10-31T10:30:48;27.25;;;10.25;;
19869;SDS011;10097;50.862;4.696;2022-10-31T10:33:23;25.60;;;10.00;;
19869;SDS011;10097;50.862;4.696;2022-10-31T10:35:52;22.27;;;10.55;;
19869;SDS011;10097;50.862;4.696;2022-10-31T10:40:54;23.25;;;10.82;;
19869;SDS011;10097;50.862;4.696;2022-10-31T10:46:18;24.50;;;11.25;;
19869;SDS011;10097;50.862;4.696;2022-10-31T10:49:23;22.23;;;11.63;;
19869;SDS011;10097;50.862;4.696;2022-10-31T10:51:58;20.80;;;11.68;;
19869;SDS011;10097;50.862;4.696;2022-10-31T10:54:44;23.95;;;11.68;;
19869;SDS011;10097;50.862;4.696;2022-10-31T10:57:37;22.90;;;11.73;;
19869;SDS011;10097;50.862;4.696;2022-10-31T11:00:19;23.23;;;11.32;;
19869;SDS011;10097;50.862;4.696;2022-10-31T11:02:47;25.80;;;11.38;;
19869;SDS011;10097;50.862;4.696;2022-10-31T11:05:15;27.77;;;11.30;;
19869;SDS011;10097;50.862;4.696;2022-10-31T11:07:59;22.30;;;10.25;;
19869;SDS011;10097;50.862;4.696;2022-10-31T11:10:25;20.23;;;10.55;;
19869;SDS011;10097;50.862;4.696;2022-10-31T11:13:02;22.95;;;10.25;;
19869;SDS011;10097;50.862;4.696;2022-10-31T11:15:33;16.88;;;9.15;;
19869;SDS011;10097;50.862;4.696;2022-10-31T11:18:03;17.98;;;9.02;;
19869;SDS011;10097;50.862;4.696;2022-10-31T11:20:33;29.00;;;10.63;;
19869;SDS011;10097;50.862;4.696;2022-10-31T11:28:29;22.60;;;9.07;;
19869;SDS011;10097;50.862;4.696;2022-10-31T11:31:15;17.88;;;8.88;;
19869;SDS011;10097;50.862;4.696;2022-10-31T11:36:21;18.52;;;8.93;;
19869;SDS011;10097;50.862;4.696;2022-10-31T11:38:48;20.70;;;9.13;;
19869;SDS011;10097;50.862;4.696;2022-10-31T11:41:16;16.67;;;7.85;;
19869;SDS011;10097;50.862;4.696;2022-10-31T11:43:50;19.60;;;8.20;;
19869;SDS011;10097;50.862;4.696;2022-10-31T11:46:41;19.08;;;8.13;;
19869;SDS011;10097;50.862;4.696;2022-10-31T11:49:05;21.05;;;8.00;;
19869;SDS011;10097;50.862;4.696;2022-10-31T11:51:37;19.33;;;7.55;;
19869;SDS011;10097;50.862;4.696;2022-10-31T11:54:04;16.92;;;7.10;;
19869;SDS011;10097;50.862;4.696;2022-10-31T11:56:41;16.95;;;7.15;;
19869;SDS011;10097;50.862;4.696;2022-10-31T11:59:26;17.38;;;7.70;;
19869;SDS011;10097;50.862;4.696;2022-10-31T12:01:54;18.83;;;6.97;;
19869;SDS011;10097;50.862;4.696;2022-10-31T12:04:29;17.75;;;7.65;;
19869;SDS011;10097;50.862;4.696;2022-10-31T12:06:59;18.48;;;7.25;;
19869;SDS011;10097;50.862;4.696;2022-10-31T12:09:27;19.23;;;7.80;;
19869;SDS011;10097;50.862;4.696;2022-10-31T12:12:17;19.98;;;7.50;;
19869;SDS011;10097;50.862;4.696;2022-10-31T12:15:15;17.52;;;7.32;;
19869;SDS011;10097;50.862;4.696;2022-10-31T12:20:27;15.00;;;7.30;;
19869;SDS011;10097;50.862;4.696;2022-10-31T12:31:33;17.63;;;8.10;;
19869;SDS011;10097;50.862;4.696;2022-10-31T12:34:38;26.35;;;7.90;;
19869;SDS011;10097;50.862;4.696;2022-10-31T12:40:51;16.77;;;6.28;;
19869;SDS011;10097;50.862;4.696;2022-10-31T12:42:58;21.45;;;6.72;;
19869;SDS011;10097;50.862;4.696;2022-10-31T12:56:51;14.38;;;5.97;;
19869;SDS011;10097;50.862;4.696;2022-10-31T12:59:40;23.15;;;6.05;;
19869;SDS011;10097;50.862;4.696;2022-10-31T13:02:19;15.82;;;5.30;;
19869;SDS011;10097;50.862;4.696;2022-10-31T13:05:40;19.13;;;5.72;;
19869;SDS011;10097;50.862;4.696;2022-10-31T13:12:12;17.30;;;5.35;;
19869;SDS011;10097;50.862;4.696;2022-10-31T13:21:27;17.65;;;4.57;;
19869;SDS011;10097;50.862;4.696;2022-10-31T13:24:00;14.52;;;4.65;;
19869;SDS011;10097;50.862;4.696;2022-10-31T13:41:13;19.42;;;6.30;;
19869;SDS011;10097;50.862;4.696;2022-10-31T13:44:01;18.95;;;5.30;;
19869;SDS011;10097;50.862;4.696;2022-10-31T13:46:37;18.70;;;6.50;;
19869;SDS011;10097;50.862;4.696;2022-10-31T13:49:18;23.60;;;5.70;;
19869;SDS011;10097;50.862;4.696;2022-10-31T13:51:49;17.67;;;6.40;;
19869;SDS011;10097;50.862;4.696;2022-10-31T13:56:56;16.70;;;5.57;;
19869;SDS011;10097;50.862;4.696;2022-10-31T13:59:23;21.55;;;6.47;;
19869;SDS011;10097;50.862;4.696;2022-10-31T14:01:55;20.52;;;6.13;;
19869;SDS011;10097;50.862;4.696;2022-10-31T14:04:38;17.55;;;6.07;;
19869;SDS011;10097;50.862;4.696;2022-10-31T14:07:10;15.93;;;6.68;;
19869;SDS011;10097;50.862;4.696;2022-10-31T14:09:38;17.75;;;6.57;;
19869;SDS011;10097;50.862;4.696;2022-10-31T14:24:31;17.45;;;7.00;;
19869;SDS011;10097;50.862;4.696;2022-10-31T14:26:59;18.33;;;7.03;;
19869;SDS011;10097;50.862;4.696;2022-10-31T14:29:44;16.08;;;6.40;;
19869;SDS011;10097;50.862;4.696;2022-10-31T14:35:14;19.92;;;7.53;;
19869;SDS011;10097;50.862;4.696;2022-10-31T14:37:56;16.60;;;6.78;;
19869;SDS011;10097;50.862;4.696;2022-10-31T14:40:35;17.10;;;6.88;;
19869;SDS011;10097;50.862;4.696;2022-10-31T14:46:01;20.35;;;8.18;;
19869;SDS011;10097;50.862;4.696;2022-10-31T14:52:30;22.80;;;8.15;;
19869;SDS011;10097;50.862;4.696;2022-10-31T15:04:57;19.08;;;8.13;;
19869;SDS011;10097;50.862;4.696;2022-10-31T15:10:45;22.45;;;9.23;;
19869;SDS011;10097;50.862;4.696;2022-10-31T15:13:21;22.40;;;8.63;;
19869;SDS011;10097;50.862;4.696;2022-10-31T15:15:47;22.83;;;8.82;;
19869;SDS011;10097;50.862;4.696;2022-10-31T15:18:20;20.65;;;8.13;;
19869;SDS011;10097;50.862;4.696;2022-10-31T15:20:49;19.25;;;8.90;;
19869;SDS011;10097;50.862;4.696;2022-10-31T15:23:21;25.65;;;9.65;;
19869;SDS011;10097;50.862;4.696;2022-10-31T15:49:54;24.67;;;9.88;;
19869;SDS011;10097;50.862;4.696;2022-10-31T16:19:49;20.73;;;9.02;;
19869;SDS011;10097;50.862;4.696;2022-10-31T16:22:22;23.55;;;9.60;;
19869;SDS011;10097;50.862;4.696;2022-10-31T16:27:48;19.52;;;8.40;;
19869;SDS011;10097;50.862;4.696;2022-10-31T16:35:48;16.77;;;7.07;;
19869;SDS011;10097;50.862;4.696;2022-10-31T16:38:14;21.77;;;6.82;;
19869;SDS011;10097;50.862;4.696;2022-10-31T16:40:40;19.63;;;6.50;;
19869;SDS011;10097;50.862;4.696;2022-10-31T16:43:13;18.85;;;7.00;;
19869;SDS011;10097;50.862;4.696;2022-10-31T16:45:44;16.13;;;6.15;;
19869;SDS011;10097;50.862;4.696;2022-10-31T16:48:15;18.88;;;6.03;;
19869;SDS011;10097;50.862;4.696;2022-10-31T16:50:44;15.27;;;5.63;;
19869;SDS011;10097;50.862;4.696;2022-10-31T16:53:11;17.08;;;5.97;;
19869;SDS011;10097;50.862;4.696;2022-10-31T17:28:00;14.60;;;5.03;;
19869;SDS011;10097;50.862;4.696;2022-10-31T17:30:26;14.18;;;4.88;;
19869;SDS011;10097;50.862;4.696;2022-10-31T17:32:52;14.00;;;5.15;;
19869;SDS011;10097;50.862;4.696;2022-10-31T17:35:19;17.75;;;5.28;;
19869;SDS011;10097;50.862;4.696;2022-10-31T17:37:46;17.30;;;5.22;;
19869;SDS011;10097;50.862;4.696;2022-10-31T17:40:17;17.05;;;5.28;;
19869;SDS011;10097;50.862;4.696;2022-10-31T17:42:52;14.30;;;5.10;;
19869;SDS011;10097;50.862;4.696;2022-10-31T17:45:20;18.08;;;5.15;;
19869;SDS011;10097;50.862;4.696;2022-10-31T17:47:47;15.68;;;4.90;;
19869;SDS011;10097;50.862;4.696;2022-10-31T17:50:17;18.48;;;5.28;;
19869;SDS011;10097;50.862;4.696;2022-10-31T17:52:44;16.52;;;5.82;;
19869;SDS011;10097;50.862;4.696;2022-10-31T17:55:13;13.43;;;5.43;;
19869;SDS011;10097;50.862;4.696;2022-10-31T17:57:39;12.82;;;4.78;;
19869;SDS011;10097;50.862;4.696;2022-10-31T18:00:09;16.38;;;5.75;;
19869;SDS011;10097;50.862;4.696;2022-10-31T18:02:37;18.52;;;4.88;;
19869;SDS011;10097;50.862;4.696;2022-10-31T18:05:03;14.23;;;4.60;;
19869;SDS011;10097;50.862;4.696;2022-10-31T18:07:30;16.13;;;4.88;;
19869;SDS011;10097;50.862;4.696;2022-10-31T18:09:56;19.63;;;5.28;;
19869;SDS011;10097;50.862;4.696;2022-10-31T18:12:22;15.85;;;5.57;;
19869;SDS011;10097;50.862;4.696;2022-10-31T18:14:48;16.52;;;5.63;;
19869;SDS011;10097;50.862;4.696;2022-10-31T18:17:14;14.10;;;5.20;;
19869;SDS011;10097;50.862;4.696;2022-10-31T18:19:40;15.85;;;5.82;;
19869;SDS011;10097;50.862;4.696;2022-10-31T18:22:06;17.73;;;4.95;;
19869;SDS011;10097;50.862;4.696;2022-10-31T18:24:31;18.48;;;5.82;;
19869;SDS011;10097;50.862;4.696;2022-10-31T18:26:57;13.98;;;4.93;;
19869;SDS011;10097;50.862;4.696;2022-10-31T18:29:23;15.13;;;5.50;;
19869;SDS011;10097;50.862;4.696;2022-10-31T18:31:48;14.80;;;4.95;;
19869;SDS011;10097;50.862;4.696;2022-10-31T18:34:16;14.77;;;5.00;;
19869;SDS011;10097;50.862;4.696;2022-10-31T18:36:42;19.02;;;5.80;;
19869;SDS011;10097;50.862;4.696;2022-10-31T18:39:08;14.52;;;5.30;;
19869;SDS011;10097;50.862;4.696;2022-10-31T18:41:35;15.88;;;4.88;;
19869;SDS011;10097;50.862;4.696;2022-10-31T18:44:02;16.17;;;4.90;;
19869;SDS011;10097;50.862;4.696;2022-10-31T18:46:32;14.63;;;5.38;;
19869;SDS011;10097;50.862;4.696;2022-10-31T18:52:25;16.27;;;5.35;;
19869;SDS011;10097;50.862;4.696;2022-10-31T18:54:50;19.50;;;6.13;;
19869;SDS011;10097;50.862;4.696;2022-10-31T18:57:16;13.60;;;5.22;;
19869;SDS011;10097;50.862;4.696;2022-10-31T18:59:41;14.88;;;5.60;;